sensor_id;sensor_type;location;lat;lon;timestamp;pressure;altitude;pressure_sealevel;temperature;humidity
85649;BME280;76075;52.476;13.124;2024-02-21T00:00:19;101574.00;;;19.55;52.43
85649;BME280;76075;52.476;13.124;2024-02-21T00:01:21;101574.00;;;19.55;52.36
85649;BME280;76075;52.476;13.124;2024-02-21T00:02:23;101573.25;;;19.55;52.44
85649;BME280;76075;52.476;13.124;2024-02-21T00:03:24;101568.25;;;19.55;52.50
85649;BME280;76075;52.476;13.124;2024-02-21T00:04:26;101567.50;;;19.55;52.37
85649;BME280;76075;52.476;13.124;2024-02-21T00:05:27;101566.75;;;19.54;52.57
85649;BME280;76075;52.476;13.124;2024-02-21T00:06:29;101566.75;;;19.54;52.40
85649;BME280;76075;52.476;13.124;2024-02-21T00:07:30;101572.50;;;19.54;52.24
85649;BME280;76075;52.476;13.124;2024-02-21T00:08:32;101556.63;;;19.53;52.38
85649;BME280;76075;52.476;13.124;2024-02-21T00:09:33;101566.00;;;19.54;52.26
85649;BME280;76075;52.476;13.124;2024-02-21T00:10:35;101565.25;;;19.53;52.19
85649;BME280;76075;52.476;13.124;2024-02-21T00:11:37;101562.38;;;19.53;52.30
85649;BME280;76075;52.476;13.124;2024-02-21T00:12:39;101558.16;;;19.54;52.14
85649;BME280;76075;52.476;13.124;2024-02-21T00:13:40;101563.75;;;19.52;52.24
85649;BME280;76075;52.476;13.124;2024-02-21T00:14:42;101565.25;;;19.53;52.18
85649;BME280;76075;52.476;13.124;2024-02-21T00:15:43;101560.88;;;19.52;52.18
85649;BME280;76075;52.476;13.124;2024-02-21T00:16:44;101559.50;;;19.53;52.19
85649;BME280;76075;52.476;13.124;2024-02-21T00:17:46;101556.50;;;19.51;52.29
85649;BME280;76075;52.476;13.124;2024-02-21T00:18:47;101558.03;;;19.52;52.29
85649;BME280;76075;52.476;13.124;2024-02-21T00:19:49;101563.75;;;19.52;52.14
85649;BME280;76075;52.476;13.124;2024-02-21T00:20:50;101558.75;;;19.53;52.24
85649;BME280;76075;52.476;13.124;2024-02-21T00:21:51;101555.75;;;19.51;52.24
85649;BME280;76075;52.476;13.124;2024-02-21T00:22:53;101555.03;;;19.50;52.20
85649;BME280;76075;52.476;13.124;2024-02-21T00:23:54;101555.75;;;19.51;52.12
85649;BME280;76075;52.476;13.124;2024-02-21T00:24:56;101549.28;;;19.50;52.26
85649;BME280;76075;52.476;13.124;2024-02-21T00:25:57;101549.28;;;19.50;52.19
85649;BME280;76075;52.476;13.124;2024-02-21T00:26:58;101549.28;;;19.50;52.12
85649;BME280;76075;52.476;13.124;2024-02-21T00:28:00;101547.75;;;19.49;52.18
85649;BME280;76075;52.476;13.124;2024-02-21T00:29:01;101546.41;;;19.50;51.97
85649;BME280;76075;52.476;13.124;2024-02-21T00:30:05;101542.00;;;19.49;52.12
85649;BME280;76075;52.476;13.124;2024-02-21T00:31:07;101540.53;;;19.48;52.12
85649;BME280;76075;52.476;13.124;2024-02-21T00:32:08;101547.75;;;19.49;52.05
85649;BME280;76075;52.476;13.124;2024-02-21T00:33:10;101542.00;;;19.49;52.14
85649;BME280;76075;52.476;13.124;2024-02-21T00:34:11;101542.00;;;19.49;52.15
85649;BME280;76075;52.476;13.124;2024-02-21T00:35:14;101547.75;;;19.49;52.06
85649;BME280;76075;52.476;13.124;2024-02-21T00:36:16;101546.28;;;19.48;52.05
85649;BME280;76075;52.476;13.124;2024-02-21T00:37:17;101541.91;;;19.47;52.04
85649;BME280;76075;52.476;13.124;2024-02-21T00:38:18;101546.28;;;19.48;52.08
85649;BME280;76075;52.476;13.124;2024-02-21T00:39:20;101544.78;;;19.47;52.01
85649;BME280;76075;52.476;13.124;2024-02-21T00:40:21;101543.41;;;19.48;52.00
85649;BME280;76075;52.476;13.124;2024-02-21T00:41:23;101546.28;;;19.48;52.05
85649;BME280;76075;52.476;13.124;2024-02-21T00:42:24;101533.31;;;19.47;51.96
85649;BME280;76075;52.476;13.124;2024-02-21T00:43:26;101544.78;;;19.47;51.87
85649;BME280;76075;52.476;13.124;2024-02-21T00:44:27;101531.16;;;19.48;51.96
85649;BME280;76075;52.476;13.124;2024-02-21T00:45:28;101530.44;;;19.47;51.97
85649;BME280;76075;52.476;13.124;2024-02-21T00:46:30;101529.66;;;19.46;51.94
85649;BME280;76075;52.476;13.124;2024-02-21T00:47:31;101536.19;;;19.47;51.83
85649;BME280;76075;52.476;13.124;2024-02-21T00:48:33;101526.03;;;19.46;51.79
85649;BME280;76075;52.476;13.124;2024-02-21T00:49:35;101532.53;;;19.46;51.96
85649;BME280;76075;52.476;13.124;2024-02-21T00:50:36;101538.28;;;19.46;51.90
85649;BME280;76075;52.476;13.124;2024-02-21T00:51:39;101528.91;;;19.46;51.77
85649;BME280;76075;52.476;13.124;2024-02-21T00:52:40;101527.44;;;19.45;51.76
85649;BME280;76075;52.476;13.124;2024-02-21T00:53:42;101528.91;;;19.46;51.73
85649;BME280;76075;52.476;13.124;2024-02-21T00:54:43;101525.31;;;19.45;51.80
85649;BME280;76075;52.476;13.124;2024-02-21T00:55:54;101533.91;;;19.45;51.65
85649;BME280;76075;52.476;13.124;2024-02-21T00:56:55;101528.16;;;19.45;51.66
85649;BME280;76075;52.476;13.124;2024-02-21T00:57:57;101525.31;;;19.45;51.78
85649;BME280;76075;52.476;13.124;2024-02-21T00:58:58;101526.66;;;19.44;51.75
85649;BME280;76075;52.476;13.124;2024-02-21T01:00:00;101513.06;;;19.45;51.72
85649;BME280;76075;52.476;13.124;2024-02-21T01:01:01;101524.56;;;19.45;51.74
85649;BME280;76075;52.476;13.124;2024-02-21T01:02:03;101524.56;;;19.45;51.72
85649;BME280;76075;52.476;13.124;2024-02-21T01:03:04;101520.31;;;19.46;51.62
85649;BME280;76075;52.476;13.124;2024-02-21T01:04:05;101523.03;;;19.44;51.68
85649;BME280;76075;52.476;13.124;2024-02-21T01:05:07;101517.31;;;19.44;51.61
85649;BME280;76075;52.476;13.124;2024-02-21T01:06:09;101524.56;;;19.45;51.69
85649;BME280;76075;52.476;13.124;2024-02-21T01:07:10;101517.31;;;19.44;51.70
85649;BME280;76075;52.476;13.124;2024-02-21T01:08:12;101523.03;;;19.44;51.56
85649;BME280;76075;52.476;13.124;2024-02-21T01:09:13;101515.81;;;19.43;51.63
85649;BME280;76075;52.476;13.124;2024-02-21T01:10:15;101515.81;;;19.43;51.60
85649;BME280;76075;52.476;13.124;2024-02-21T01:11:18;101510.06;;;19.43;51.58
85649;BME280;76075;52.476;13.124;2024-02-21T01:12:19;101505.69;;;19.42;51.50
85649;BME280;76075;52.476;13.124;2024-02-21T01:13:21;101515.06;;;19.42;51.48
85649;BME280;76075;52.476;13.124;2024-02-21T01:14:22;101511.44;;;19.42;51.56
85649;BME280;76075;52.476;13.124;2024-02-21T01:15:24;101514.31;;;19.42;51.41
85649;BME280;76075;52.476;13.124;2024-02-21T01:16:25;101515.81;;;19.43;51.52
85649;BME280;76075;52.476;13.124;2024-02-21T01:17:27;101513.56;;;19.41;51.47
85649;BME280;76075;52.476;13.124;2024-02-21T01:18:28;101507.06;;;19.41;51.53
85649;BME280;76075;52.476;13.124;2024-02-21T01:19:30;101513.56;;;19.41;51.42
85649;BME280;76075;52.476;13.124;2024-02-21T01:20:31;101509.94;;;19.41;51.40
85649;BME280;76075;52.476;13.124;2024-02-21T01:21:32;101507.06;;;19.41;51.47
85649;BME280;76075;52.476;13.124;2024-02-21T01:22:34;101502.69;;;19.40;51.28
85649;BME280;76075;52.476;13.124;2024-02-21T01:23:36;101507.06;;;19.41;51.38
85649;BME280;76075;52.476;13.124;2024-02-21T01:24:38;101505.56;;;19.40;51.53
85649;BME280;76075;52.476;13.124;2024-02-21T01:25:39;101503.47;;;19.40;51.39
85649;BME280;76075;52.476;13.124;2024-02-21T01:26:40;101500.59;;;19.40;51.38
85649;BME280;76075;52.476;13.124;2024-02-21T01:27:42;101494.06;;;19.40;51.46
85649;BME280;76075;52.476;13.124;2024-02-21T01:28:43;101501.31;;;19.41;51.36
85649;BME280;76075;52.476;13.124;2024-02-21T01:29:45;101500.59;;;19.40;51.39
85649;BME280;76075;52.476;13.124;2024-02-21T01:30:47;101499.06;;;19.39;51.26
85649;BME280;76075;52.476;13.124;2024-02-21T01:31:49;101503.47;;;19.40;51.30
85649;BME280;76075;52.476;13.124;2024-02-21T01:32:50;101499.81;;;19.40;51.35
85649;BME280;76075;52.476;13.124;2024-02-21T01:33:51;101504.81;;;19.39;51.36
85649;BME280;76075;52.476;13.124;2024-02-21T01:34:53;101498.94;;;19.37;51.22
85649;BME280;76075;52.476;13.124;2024-02-21T01:35:54;101499.81;;;19.40;51.25
85649;BME280;76075;52.476;13.124;2024-02-21T01:36:57;101498.34;;;19.39;51.35
85649;BME280;76075;52.476;13.124;2024-02-21T01:37:58;101501.81;;;19.37;51.15
85649;BME280;76075;52.476;13.124;2024-02-21T01:38:59;101501.06;;;19.37;50.98
85649;BME280;76075;52.476;13.124;2024-02-21T01:40:01;101498.22;;;19.37;51.30
85649;BME280;76075;52.476;13.124;2024-02-21T01:41:04;101493.97;;;19.38;51.11
85649;BME280;76075;52.476;13.124;2024-02-21T01:42:05;101496.84;;;19.38;51.27
85649;BME280;76075;52.476;13.124;2024-02-21T01:43:17;101489.59;;;19.37;51.13
85649;BME280;76075;52.476;13.124;2024-02-21T01:44:19;101490.34;;;19.37;51.25
85649;BME280;76075;52.476;13.124;2024-02-21T01:45:20;101496.06;;;19.37;51.10
85649;BME280;76075;52.476;13.124;2024-02-21T01:46:22;101488.09;;;19.36;51.16
85649;BME280;76075;52.476;13.124;2024-02-21T01:47:23;101489.59;;;19.37;51.12
85649;BME280;76075;52.476;13.124;2024-02-21T01:48:25;101489.59;;;19.37;51.21
85649;BME280;76075;52.476;13.124;2024-02-21T01:49:26;101494.59;;;19.36;51.04
85649;BME280;76075;52.476;13.124;2024-02-21T01:50:28;101490.97;;;19.36;51.16
85649;BME280;76075;52.476;13.124;2024-02-21T01:51:30;101483.09;;;19.36;51.16
85649;BME280;76075;52.476;13.124;2024-02-21T01:52:31;101486.09;;;19.38;51.03
85649;BME280;76075;52.476;13.124;2024-02-21T01:53:35;101486.72;;;19.37;51.06
85649;BME280;76075;52.476;13.124;2024-02-21T01:54:38;101482.34;;;19.36;51.08
85649;BME280;76075;52.476;13.124;2024-02-21T01:55:39;101488.84;;;19.36;51.07
85649;BME280;76075;52.476;13.124;2024-02-21T01:56:43;101488.09;;;19.36;51.15
85649;BME280;76075;52.476;13.124;2024-02-21T01:57:45;101484.47;;;19.35;51.06
85649;BME280;76075;52.476;13.124;2024-02-21T01:58:47;101488.09;;;19.36;51.13
85649;BME280;76075;52.476;13.124;2024-02-21T01:59:49;101485.09;;;19.34;51.13
85649;BME280;76075;52.476;13.124;2024-02-21T02:00:51;101477.25;;;19.34;51.06
85649;BME280;76075;52.476;13.124;2024-02-21T02:01:52;101480.09;;;19.34;51.03
85649;BME280;76075;52.476;13.124;2024-02-21T02:02:55;101479.38;;;19.34;50.95
85649;BME280;76075;52.476;13.124;2024-02-21T02:03:56;101475.09;;;19.35;51.01
85649;BME280;76075;52.476;13.124;2024-02-21T02:04:58;101473.63;;;19.34;51.00
85649;BME280;76075;52.476;13.124;2024-02-21T02:06:00;101475.09;;;19.35;50.96
85649;BME280;76075;52.476;13.124;2024-02-21T02:07:02;101469.38;;;19.35;51.04
85649;BME280;76075;52.476;13.124;2024-02-21T02:08:06;101467.09;;;19.33;51.12
85649;BME280;76075;52.476;13.124;2024-02-21T02:09:07;101475.09;;;19.35;51.03
85649;BME280;76075;52.476;13.124;2024-02-21T02:10:08;101469.97;;;19.33;50.95
85649;BME280;76075;52.476;13.124;2024-02-21T02:11:13;101460.63;;;19.33;51.04
85649;BME280;76075;52.476;13.124;2024-02-21T02:12:14;101464.88;;;19.32;51.08
85649;BME280;76075;52.476;13.124;2024-02-21T02:13:15;101457.63;;;19.31;51.07
85649;BME280;76075;52.476;13.124;2024-02-21T02:14:17;101464.88;;;19.32;51.13
85649;BME280;76075;52.476;13.124;2024-02-21T02:15:18;101467.75;;;19.32;50.97
85649;BME280;76075;52.476;13.124;2024-02-21T02:16:20;101464.88;;;19.32;51.08
85649;BME280;76075;52.476;13.124;2024-02-21T02:17:22;101463.38;;;19.31;51.09
85649;BME280;76075;52.476;13.124;2024-02-21T02:18:23;101456.88;;;19.30;51.03
85649;BME280;76075;52.476;13.124;2024-02-21T02:19:25;101471.25;;;19.30;51.02
85649;BME280;76075;52.476;13.124;2024-02-21T02:20:26;101464.13;;;19.31;51.05
85649;BME280;76075;52.476;13.124;2024-02-21T02:21:35;101454.00;;;19.30;51.08
85649;BME280;76075;52.476;13.124;2024-02-21T02:22:39;101454.75;;;19.31;51.09
85649;BME280;76075;52.476;13.124;2024-02-21T02:23:42;101461.88;;;19.30;51.04
85649;BME280;76075;52.476;13.124;2024-02-21T02:24:43;101462.63;;;19.30;50.86
85649;BME280;76075;52.476;13.124;2024-02-21T02:25:44;101456.13;;;19.30;51.04
85649;BME280;76075;52.476;13.124;2024-02-21T02:26:46;101456.13;;;19.30;51.03
85649;BME280;76075;52.476;13.124;2024-02-21T02:27:48;101456.13;;;19.30;51.09
85649;BME280;76075;52.476;13.124;2024-02-21T02:28:49;101449.66;;;19.29;50.99
85649;BME280;76075;52.476;13.124;2024-02-21T02:29:51;101449.66;;;19.29;51.07
85649;BME280;76075;52.476;13.124;2024-02-21T02:30:53;101449.66;;;19.29;50.99
85649;BME280;76075;52.476;13.124;2024-02-21T02:31:55;101453.28;;;19.30;51.06
85649;BME280;76075;52.476;13.124;2024-02-21T02:32:56;101456.13;;;19.30;50.95
85649;BME280;76075;52.476;13.124;2024-02-21T02:33:58;101449.66;;;19.29;51.07
85649;BME280;76075;52.476;13.124;2024-02-21T02:34:59;101443.16;;;19.29;51.09
85649;BME280;76075;52.476;13.124;2024-02-21T02:36:01;101447.41;;;19.28;51.10
85649;BME280;76075;52.476;13.124;2024-02-21T02:37:02;101446.00;;;19.29;51.04
85649;BME280;76075;52.476;13.124;2024-02-21T02:38:03;101448.78;;;19.27;50.99
85649;BME280;76075;52.476;13.124;2024-02-21T02:39:05;101443.78;;;19.27;51.10
85649;BME280;76075;52.476;13.124;2024-02-21T02:40:06;101448.13;;;19.28;50.95
85649;BME280;76075;52.476;13.124;2024-02-21T02:41:08;101449.66;;;19.29;50.94
85649;BME280;76075;52.476;13.124;2024-02-21T02:42:09;101445.91;;;19.27;51.09
85649;BME280;76075;52.476;13.124;2024-02-21T02:43:11;101443.78;;;19.27;51.07
85649;BME280;76075;52.476;13.124;2024-02-21T02:44:12;101447.41;;;19.28;51.15
85649;BME280;76075;52.476;13.124;2024-02-21T02:45:13;101443.03;;;19.27;51.07
85649;BME280;76075;52.476;13.124;2024-02-21T02:46:15;101440.16;;;19.27;51.18
85649;BME280;76075;52.476;13.124;2024-02-21T02:47:16;101439.41;;;19.26;51.23
85649;BME280;76075;52.476;13.124;2024-02-21T02:48:18;101428.69;;;19.27;51.01
85649;BME280;76075;52.476;13.124;2024-02-21T02:49:21;101432.91;;;19.25;51.09
85649;BME280;76075;52.476;13.124;2024-02-21T02:50:26;101427.19;;;19.25;51.25
85649;BME280;76075;52.476;13.124;2024-02-21T02:51:27;101439.41;;;19.26;51.15
85649;BME280;76075;52.476;13.124;2024-02-21T02:52:29;101421.44;;;19.25;51.07
85649;BME280;76075;52.476;13.124;2024-02-21T02:53:30;101427.91;;;19.26;51.14
85649;BME280;76075;52.476;13.124;2024-02-21T02:54:31;101426.44;;;19.25;51.13
85649;BME280;76075;52.476;13.124;2024-02-21T02:55:33;101426.44;;;19.25;51.20
85649;BME280;76075;52.476;13.124;2024-02-21T02:56:34;101414.22;;;19.24;51.11
85649;BME280;76075;52.476;13.124;2024-02-21T02:57:36;101420.69;;;19.25;51.24
85649;BME280;76075;52.476;13.124;2024-02-21T02:58:37;101412.69;;;19.23;51.22
85649;BME280;76075;52.476;13.124;2024-02-21T02:59:38;101411.34;;;19.24;51.13
85649;BME280;76075;52.476;13.124;2024-02-21T03:00:40;101419.94;;;19.24;51.18
85649;BME280;76075;52.476;13.124;2024-02-21T03:01:41;101411.34;;;19.24;51.23
85649;BME280;76075;52.476;13.124;2024-02-21T03:02:43;101410.56;;;19.24;51.16
85649;BME280;76075;52.476;13.124;2024-02-21T03:03:46;101409.22;;;19.25;51.07
85649;BME280;76075;52.476;13.124;2024-02-21T03:04:48;101408.47;;;19.24;51.21
85649;BME280;76075;52.476;13.124;2024-02-21T03:05:50;101408.47;;;19.24;51.12
85649;BME280;76075;52.476;13.124;2024-02-21T03:06:51;101409.81;;;19.23;51.22
85649;BME280;76075;52.476;13.124;2024-02-21T03:07:52;101406.22;;;19.23;51.33
85649;BME280;76075;52.476;13.124;2024-02-21T03:08:54;101415.56;;;19.23;51.09
85649;BME280;76075;52.476;13.124;2024-02-21T03:09:56;101405.47;;;19.22;51.25
85649;BME280;76075;52.476;13.124;2024-02-21T03:10:57;101403.34;;;19.23;51.22
85649;BME280;76075;52.476;13.124;2024-02-21T03:11:58;101399.72;;;19.22;51.21
85649;BME280;76075;52.476;13.124;2024-02-21T03:13:04;101404.72;;;19.22;51.08
85649;BME280;76075;52.476;13.124;2024-02-21T03:14:05;101398.22;;;19.21;51.27
85649;BME280;76075;52.476;13.124;2024-02-21T03:15:07;101398.88;;;19.20;51.24
85649;BME280;76075;52.476;13.124;2024-02-21T03:16:09;101403.22;;;19.21;51.24
85649;BME280;76075;52.476;13.124;2024-02-21T03:17:10;101398.34;;;19.23;51.28
85649;BME280;76075;52.476;13.124;2024-02-21T03:18:11;101401.22;;;19.23;51.23
85649;BME280;76075;52.476;13.124;2024-02-21T03:19:13;101398.22;;;19.21;51.21
85649;BME280;76075;52.476;13.124;2024-02-21T03:20:14;101399.97;;;19.27;51.15
85649;BME280;76075;52.476;13.124;2024-02-21T03:21:16;101399.19;;;19.26;51.13
85649;BME280;76075;52.476;13.124;2024-02-21T03:22:17;101395.59;;;19.25;51.21
85649;BME280;76075;52.476;13.124;2024-02-21T03:23:19;101396.13;;;19.22;51.24
85649;BME280;76075;52.476;13.124;2024-02-21T03:24:20;101398.22;;;19.21;51.38
85649;BME280;76075;52.476;13.124;2024-02-21T03:25:22;101397.47;;;19.21;51.25
85649;BME280;76075;52.476;13.124;2024-02-21T03:26:23;101390.25;;;19.20;51.19
85649;BME280;76075;52.476;13.124;2024-02-21T03:27:24;101393.13;;;19.20;51.23
85649;BME280;76075;52.476;13.124;2024-02-21T03:28:26;101390.25;;;19.20;51.15
85649;BME280;76075;52.476;13.124;2024-02-21T03:29:27;101390.25;;;19.20;51.21
85649;BME280;76075;52.476;13.124;2024-02-21T03:30:28;101395.22;;;19.19;51.30
85649;BME280;76075;52.476;13.124;2024-02-21T03:31:30;101385.13;;;19.18;51.35
85649;BME280;76075;52.476;13.124;2024-02-21T03:32:33;101389.47;;;19.19;51.34
85649;BME280;76075;52.476;13.124;2024-02-21T03:33:34;101383.00;;;19.19;51.32
85649;BME280;76075;52.476;13.124;2024-02-21T03:34:35;101382.25;;;19.18;51.29
85649;BME280;76075;52.476;13.124;2024-02-21T03:35:37;101382.25;;;19.18;51.34
85649;BME280;76075;52.476;13.124;2024-02-21T03:36:38;101380.78;;;19.17;51.29
85649;BME280;76075;52.476;13.124;2024-02-21T03:37:40;101382.25;;;19.18;51.43
85649;BME280;76075;52.476;13.124;2024-02-21T03:38:41;101375.03;;;19.17;51.40
85649;BME280;76075;52.476;13.124;2024-02-21T03:39:42;101374.25;;;19.17;51.33
85649;BME280;76075;52.476;13.124;2024-02-21T03:40:44;101378.00;;;19.19;51.18
85649;BME280;76075;52.476;13.124;2024-02-21T03:41:45;101370.75;;;19.18;51.22
85649;BME280;76075;52.476;13.124;2024-02-21T03:42:47;101372.91;;;19.18;51.29
85649;BME280;76075;52.476;13.124;2024-02-21T03:43:48;101370.03;;;19.18;51.31
85649;BME280;76075;52.476;13.124;2024-02-21T03:44:49;101382.25;;;19.18;51.35
85649;BME280;76075;52.476;13.124;2024-02-21T03:45:51;101377.91;;;19.17;51.23
85649;BME280;76075;52.476;13.124;2024-02-21T03:46:52;101371.50;;;19.19;51.27
85649;BME280;76075;52.476;13.124;2024-02-21T03:47:54;101370.75;;;19.18;51.20
85649;BME280;76075;52.476;13.124;2024-02-21T03:48:55;101370.03;;;19.18;51.22
85649;BME280;76075;52.476;13.124;2024-02-21T03:49:57;101375.13;;;19.19;51.30
85649;BME280;76075;52.476;13.124;2024-02-21T03:50:59;101367.91;;;19.18;51.28
85649;BME280;76075;52.476;13.124;2024-02-21T03:52:00;101357.91;;;19.19;51.19
85649;BME280;76075;52.476;13.124;2024-02-21T03:53:02;101360.75;;;19.19;51.23
85649;BME280;76075;52.476;13.124;2024-02-21T03:54:03;101363.75;;;19.21;51.09
85649;BME280;76075;52.476;13.124;2024-02-21T03:55:05;101363.75;;;19.21;51.13
85649;BME280;76075;52.476;13.124;2024-02-21T03:56:06;101366.63;;;19.21;51.06
85649;BME280;76075;52.476;13.124;2024-02-21T03:57:08;101355.28;;;19.23;51.07
85649;BME280;76075;52.476;13.124;2024-02-21T03:58:09;101362.53;;;19.24;50.97
85649;BME280;76075;52.476;13.124;2024-02-21T03:59:11;101353.13;;;19.24;51.02
85649;BME280;76075;52.476;13.124;2024-02-21T04:00:12;101366.88;;;19.25;51.13
85649;BME280;76075;52.476;13.124;2024-02-21T04:01:15;101364.00;;;19.25;50.83
85649;BME280;76075;52.476;13.124;2024-02-21T04:02:16;101356.91;;;19.27;51.05
85649;BME280;76075;52.476;13.124;2024-02-21T04:03:18;101360.50;;;19.27;50.99
85649;BME280;76075;52.476;13.124;2024-02-21T04:04:21;101355.50;;;19.28;51.01
85649;BME280;76075;52.476;13.124;2024-02-21T04:05:22;101358.38;;;19.28;50.97
85649;BME280;76075;52.476;13.124;2024-02-21T04:06:24;101345.50;;;19.29;51.08
85649;BME280;76075;52.476;13.124;2024-02-21T04:07:25;101344.03;;;19.28;51.01
85649;BME280;76075;52.476;13.124;2024-02-21T04:08:27;101338.28;;;19.28;50.97
85649;BME280;76075;52.476;13.124;2024-02-21T04:09:28;101340.53;;;19.29;50.99
85649;BME280;76075;52.476;13.124;2024-02-21T04:10:29;101337.66;;;19.29;51.02
85649;BME280;76075;52.476;13.124;2024-02-21T04:11:31;101328.28;;;19.29;51.01
85649;BME280;76075;52.476;13.124;2024-02-21T04:12:32;101339.03;;;19.28;51.03
85649;BME280;76075;52.476;13.124;2024-02-21T04:13:34;101339.03;;;19.28;50.97
85649;BME280;76075;52.476;13.124;2024-02-21T04:14:35;101337.66;;;19.29;51.05
85649;BME280;76075;52.476;13.124;2024-02-21T04:15:37;101333.28;;;19.28;51.09
85649;BME280;76075;52.476;13.124;2024-02-21T04:16:38;101334.78;;;19.29;51.16
85649;BME280;76075;52.476;13.124;2024-02-21T04:17:40;101332.66;;;19.30;51.03
85649;BME280;76075;52.476;13.124;2024-02-21T04:18:42;101323.94;;;19.28;51.01
85649;BME280;76075;52.476;13.124;2024-02-21T04:19:44;101319.78;;;19.31;51.13
85649;BME280;76075;52.476;13.124;2024-02-21T04:20:45;101314.03;;;19.31;51.17
85649;BME280;76075;52.476;13.124;2024-02-21T04:21:47;101312.56;;;19.30;51.13
85649;BME280;76075;52.476;13.124;2024-02-21T04:22:49;101312.56;;;19.30;51.26
85649;BME280;76075;52.476;13.124;2024-02-21T04:23:50;101315.44;;;19.30;51.20
85649;BME280;76075;52.476;13.124;2024-02-21T04:24:52;101316.91;;;19.31;51.27
85649;BME280;76075;52.476;13.124;2024-02-21T04:25:53;101306.94;;;19.32;51.28
85649;BME280;76075;52.476;13.124;2024-02-21T04:26:54;101305.56;;;19.33;51.32
85649;BME280;76075;52.476;13.124;2024-02-21T04:27:56;101291.19;;;19.33;51.23
85649;BME280;76075;52.476;13.124;2024-02-21T04:28:57;101299.06;;;19.32;51.32
85649;BME280;76075;52.476;13.124;2024-02-21T04:29:59;101301.31;;;19.34;51.36
85649;BME280;76075;52.476;13.124;2024-02-21T04:31:00;101284.81;;;19.34;51.47
85649;BME280;76075;52.476;13.124;2024-02-21T04:32:02;101285.56;;;19.35;51.35
85649;BME280;76075;52.476;13.124;2024-02-21T04:33:03;101279.81;;;19.35;51.65
85649;BME280;76075;52.476;13.124;2024-02-21T04:34:06;101280.56;;;19.35;51.71
85649;BME280;76075;52.476;13.124;2024-02-21T04:35:07;101263.34;;;19.35;51.58
85649;BME280;76075;52.476;13.124;2024-02-21T04:36:09;101266.22;;;19.35;51.68
85649;BME280;76075;52.476;13.124;2024-02-21T04:37:10;101270.59;;;19.36;51.65
85649;BME280;76075;52.476;13.124;2024-02-21T04:38:12;101269.84;;;19.36;51.66
85649;BME280;76075;52.476;13.124;2024-02-21T04:39:13;101273.47;;;19.36;51.84
85649;BME280;76075;52.476;13.124;2024-02-21T04:40:14;101261.22;;;19.36;51.64
85649;BME280;76075;52.476;13.124;2024-02-21T04:41:17;101269.84;;;19.36;51.78
85649;BME280;76075;52.476;13.124;2024-02-21T04:42:19;101270.59;;;19.36;51.84
85649;BME280;76075;52.476;13.124;2024-02-21T04:43:21;101266.31;;;19.37;51.94
85649;BME280;76075;52.476;13.124;2024-02-21T04:44:22;101266.97;;;19.36;51.86
85649;BME280;76075;52.476;13.124;2024-02-21T04:45:23;101259.84;;;19.37;51.77
85649;BME280;76075;52.476;13.124;2024-02-21T04:46:25;101260.47;;;19.35;51.75
85649;BME280;76075;52.476;13.124;2024-02-21T04:47:26;101267.72;;;19.36;51.70
85649;BME280;76075;52.476;13.124;2024-02-21T04:48:28;101273.47;;;19.36;51.71
85649;BME280;76075;52.476;13.124;2024-02-21T04:49:29;101265.59;;;19.37;51.65
85649;BME280;76075;52.476;13.124;2024-02-21T04:50:31;101258.38;;;19.36;51.74
85649;BME280;76075;52.476;13.124;2024-02-21T04:51:32;101255.59;;;19.38;51.92
85649;BME280;76075;52.476;13.124;2024-02-21T04:52:36;101262.09;;;19.38;51.94
85649;BME280;76075;52.476;13.124;2024-02-21T04:53:37;101261.44;;;19.40;52.01
85649;BME280;76075;52.476;13.124;2024-02-21T04:54:39;101256.34;;;19.38;51.95
85649;BME280;76075;52.476;13.124;2024-02-21T04:55:41;101252.09;;;19.39;51.96
85649;BME280;76075;52.476;13.124;2024-02-21T04:56:42;101252.09;;;19.39;51.94
85649;BME280;76075;52.476;13.124;2024-02-21T04:57:44;101254.34;;;19.41;52.03
85649;BME280;76075;52.476;13.124;2024-02-21T04:58:45;101252.81;;;19.40;51.95
85649;BME280;76075;52.476;13.124;2024-02-21T04:59:46;101257.22;;;19.41;52.03
85649;BME280;76075;52.476;13.124;2024-02-21T05:00:51;101256.59;;;19.42;52.12
85649;BME280;76075;52.476;13.124;2024-02-21T05:01:52;101261.56;;;19.42;52.34
85649;BME280;76075;52.476;13.124;2024-02-21T05:02:54;101261.56;;;19.42;52.20
85649;BME280;76075;52.476;13.124;2024-02-21T05:03:55;101263.06;;;19.43;52.26
85649;BME280;76075;52.476;13.124;2024-02-21T05:04:57;101258.06;;;19.43;52.22
85649;BME280;76075;52.476;13.124;2024-02-21T05:05:58;101262.34;;;19.42;52.18
85649;BME280;76075;52.476;13.124;2024-02-21T05:07:00;101258.06;;;19.43;52.24
85649;BME280;76075;52.476;13.124;2024-02-21T05:08:02;101265.94;;;19.43;52.03
85649;BME280;76075;52.476;13.124;2024-02-21T05:09:04;101273.81;;;19.42;52.06
85649;BME280;76075;52.476;13.124;2024-02-21T05:10:06;101262.34;;;19.42;52.16
85649;BME280;76075;52.476;13.124;2024-02-21T05:11:08;101261.56;;;19.42;52.10
85649;BME280;76075;52.476;13.124;2024-02-21T05:12:09;101260.09;;;19.41;52.02
85649;BME280;76075;52.476;13.124;2024-02-21T05:13:11;101258.69;;;19.42;52.04
85649;BME280;76075;52.476;13.124;2024-02-21T05:14:12;101265.94;;;19.43;52.08
85649;BME280;76075;52.476;13.124;2024-02-21T05:15:13;101257.94;;;19.41;51.98
85649;BME280;76075;52.476;13.124;2024-02-21T05:16:15;101247.97;;;19.42;52.14
85649;BME280;76075;52.476;13.124;2024-02-21T05:17:17;101255.19;;;19.43;52.11
85649;BME280;76075;52.476;13.124;2024-02-21T05:18:18;101258.06;;;19.43;52.27